sensor_id;sensor_type;location;lat;lon;timestamp;temperature;humidity
30206;DHT22;17010;51.306;3.150;2023-04-15T00:01:38;10.20;99.90
30206;DHT22;17010;51.306;3.150;2023-04-15T00:04:05;10.10;99.90
30206;DHT22;17010;51.306;3.150;2023-04-15T00:06:31;10.10;99.90
30206;DHT22;17010;51.306;3.150;2023-04-15T00:08:58;10.10;99.90
30206;DHT22;17010;51.306;3.150;2023-04-15T00:11:26;10.10;99.90
30206;DHT22;17010;51.306;3.150;2023-04-15T00:13:52;10.00;99.90
30206;DHT22;17010;51.306;3.150;2023-04-15T00:16:20;10.00;99.90
30206;DHT22;17010;51.306;3.150;2023-04-15T00:18:47;10.00;99.90
30206;DHT22;17010;51.306;3.150;2023-04-15T00:21:15;10.00;99.90
30206;DHT22;17010;51.306;3.150;2023-04-15T00:23:42;10.00;99.90
30206;DHT22;17010;51.306;3.150;2023-04-15T00:26:09;9.90;99.90
30206;DHT22;17010;51.306;3.150;2023-04-15T00:28:38;9.80;99.90
30206;DHT22;17010;51.306;3.150;2023-04-15T00:31:05;9.80;99.90
30206;DHT22;17010;51.306;3.150;2023-04-15T00:33:31;9.80;99.90
30206;DHT22;17010;51.306;3.150;2023-04-15T00:35:58;9.80;99.90
30206;DHT22;17010;51.306;3.150;2023-04-15T00:38:24;9.80;99.90
30206;DHT22;17010;51.306;3.150;2023-04-15T00:40:51;9.80;99.90
30206;DHT22;17010;51.306;3.150;2023-04-15T00:43:19;9.70;99.90
30206;DHT22;17010;51.306;3.150;2023-04-15T00:45:45;9.60;99.90
30206;DHT22;17010;51.306;3.150;2023-04-15T00:48:12;9.60;99.90
30206;DHT22;17010;51.306;3.150;2023-04-15T00:50:40;9.50;99.90
30206;DHT22;17010;51.306;3.150;2023-04-15T00:53:08;9.40;99.90
30206;DHT22;17010;51.306;3.150;2023-04-15T00:55:35;9.40;99.90
30206;DHT22;17010;51.306;3.150;2023-04-15T00:58:03;9.40;99.90
30206;DHT22;17010;51.306;3.150;2023-04-15T01:00:33;9.30;99.90
30206;DHT22;17010;51.306;3.150;2023-04-15T01:03:01;9.30;99.90
30206;DHT22;17010;51.306;3.150;2023-04-15T01:05:29;9.30;99.90
30206;DHT22;17010;51.306;3.150;2023-04-15T01:07:56;9.30;99.90
30206;DHT22;17010;51.306;3.150;2023-04-15T01:10:23;9.30;99.90
30206;DHT22;17010;51.306;3.150;2023-04-15T01:12:49;9.30;99.90
30206;DHT22;17010;51.306;3.150;2023-04-15T01:15:18;9.30;99.90
30206;DHT22;17010;51.306;3.150;2023-04-15T01:17:48;9.20;99.90
30206;DHT22;17010;51.306;3.150;2023-04-15T01:20:17;9.10;99.90
30206;DHT22;17010;51.306;3.150;2023-04-15T01:22:44;9.20;99.90
30206;DHT22;17010;51.306;3.150;2023-04-15T01:25:17;9.20;99.90
30206;DHT22;17010;51.306;3.150;2023-04-15T01:27:44;9.10;99.90
30206;DHT22;17010;51.306;3.150;2023-04-15T01:30:12;9.10;99.90
30206;DHT22;17010;51.306;3.150;2023-04-15T01:32:43;9.10;99.90
30206;DHT22;17010;51.306;3.150;2023-04-15T01:35:59;9.10;99.90
30206;DHT22;17010;51.306;3.150;2023-04-15T01:39:22;9.10;99.90
30206;DHT22;17010;51.306;3.150;2023-04-15T01:42:57;9.10;99.90
30206;DHT22;17010;51.306;3.150;2023-04-15T01:45:51;9.00;99.90
30206;DHT22;17010;51.306;3.150;2023-04-15T01:49:20;9.00;99.90
30206;DHT22;17010;51.306;3.150;2023-04-15T01:52:56;8.90;99.90
30206;DHT22;17010;51.306;3.150;2023-04-15T01:56:21;8.80;99.90
30206;DHT22;17010;51.306;3.150;2023-04-15T01:59:27;8.80;99.90
30206;DHT22;17010;51.306;3.150;2023-04-15T02:02:58;8.80;99.90
30206;DHT22;17010;51.306;3.150;2023-04-15T02:09:59;8.80;99.90
30206;DHT22;17010;51.306;3.150;2023-04-15T02:23:57;8.80;99.90
30206;DHT22;17010;51.306;3.150;2023-04-15T02:34:19;8.80;99.90
30206;DHT22;17010;51.306;3.150;2023-04-15T02:37:06;8.70;99.90
30206;DHT22;17010;51.306;3.150;2023-04-15T02:54:18;8.70;99.90
30206;DHT22;17010;51.306;3.150;2023-04-15T02:57:41;8.60;99.90
30206;DHT22;17010;51.306;3.150;2023-04-15T07:38:57;10.30;99.90
30206;DHT22;17010;51.306;3.150;2023-04-15T07:41:31;10.30;99.90
30206;DHT22;17010;51.306;3.150;2023-04-15T07:44:11;10.30;99.90
30206;DHT22;17010;51.306;3.150;2023-04-15T07:46:56;10.30;99.90
30206;DHT22;17010;51.306;3.150;2023-04-15T07:49:38;10.20;99.90
30206;DHT22;17010;51.306;3.150;2023-04-15T07:52:07;10.20;99.90
30206;DHT22;17010;51.306;3.150;2023-04-15T07:55:01;10.10;99.90
30206;DHT22;17010;51.306;3.150;2023-04-15T07:57:51;10.10;99.90
30206;DHT22;17010;51.306;3.150;2023-04-15T08:00:49;10.10;99.90
30206;DHT22;17010;51.306;3.150;2023-04-15T08:03:38;10.10;99.90
30206;DHT22;17010;51.306;3.150;2023-04-15T08:06:24;10.20;99.90
30206;DHT22;17010;51.306;3.150;2023-04-15T08:09:33;10.30;99.90
30206;DHT22;17010;51.306;3.150;2023-04-15T08:12:14;10.30;99.90
30206;DHT22;17010;51.306;3.150;2023-04-15T08:27:18;10.50;99.90
30206;DHT22;17010;51.306;3.150;2023-04-15T08:30:27;10.60;99.90
30206;DHT22;17010;51.306;3.150;2023-04-15T08:33:48;10.60;99.90
30206;DHT22;17010;51.306;3.150;2023-04-15T08:36:43;10.70;99.90
30206;DHT22;17010;51.306;3.150;2023-04-15T08:39:49;10.70;99.90
30206;DHT22;17010;51.306;3.150;2023-04-15T08:53:31;11.00;99.90
30206;DHT22;17010;51.306;3.150;2023-04-15T08:59:59;11.20;99.90
30206;DHT22;17010;51.306;3.150;2023-04-15T10:20:04;13.60;99.90
30206;DHT22;17010;51.306;3.150;2023-04-15T10:22:42;13.60;99.90
30206;DHT22;17010;51.306;3.150;2023-04-15T10:25:11;13.70;99.90
30206;DHT22;17010;51.306;3.150;2023-04-15T10:27:39;13.80;99.90
30206;DHT22;17010;51.306;3.150;2023-04-15T10:30:34;13.70;99.90
30206;DHT22;17010;51.306;3.150;2023-04-15T10:33:06;13.50;99.90
30206;DHT22;17010;51.306;3.150;2023-04-15T10:47:23;13.40;99.90
30206;DHT22;17010;51.306;3.150;2023-04-15T10:50:24;13.40;99.90
30206;DHT22;17010;51.306;3.150;2023-04-15T10:53:07;13.20;99.90
30206;DHT22;17010;51.306;3.150;2023-04-15T10:55:59;13.20;99.90
30206;DHT22;17010;51.306;3.150;2023-04-15T10:58:29;13.10;99.90
30206;DHT22;17010;51.306;3.150;2023-04-15T11:01:09;13.20;99.90
30206;DHT22;17010;51.306;3.150;2023-04-15T11:13:04;13.20;99.90
30206;DHT22;17010;51.306;3.150;2023-04-15T11:15:42;13.30;99.90
30206;DHT22;17010;51.306;3.150;2023-04-15T11:20:45;13.40;99.90
30206;DHT22;17010;51.306;3.150;2023-04-15T11:23:19;13.50;99.90
30206;DHT22;17010;51.306;3.150;2023-04-15T11:25:58;13.50;99.90
30206;DHT22;17010;51.306;3.150;2023-04-15T11:28:34;13.50;99.90
30206;DHT22;17010;51.306;3.150;2023-04-15T11:31:14;13.60;99.90
30206;DHT22;17010;51.306;3.150;2023-04-15T11:33:58;13.70;99.90
30206;DHT22;17010;51.306;3.150;2023-04-15T11:36:36;13.70;99.90
30206;DHT22;17010;51.306;3.150;2023-04-15T11:39:05;13.70;99.90
30206;DHT22;17010;51.306;3.150;2023-04-15T11:41:40;13.60;99.90
30206;DHT22;17010;51.306;3.150;2023-04-15T11:44:25;13.60;99.90
30206;DHT22;17010;51.306;3.150;2023-04-15T11:46:54;13.40;99.90
30206;DHT22;17010;51.306;3.150;2023-04-15T11:49:30;13.50;99.90
30206;DHT22;17010;51.306;3.150;2023-04-15T11:51:58;13.50;99.90
30206;DHT22;17010;51.306;3.150;2023-04-15T11:54:26;13.30;99.90
30206;DHT22;17010;51.306;3.150;2023-04-15T11:56:52;13.40;99.90
30206;DHT22;17010;51.306;3.150;2023-04-15T11:59:19;13.30;99.90
30206;DHT22;17010;51.306;3.150;2023-04-15T12:01:45;13.50;99.90
30206;DHT22;17010;51.306;3.150;2023-04-15T12:04:18;13.40;99.90
30206;DHT22;17010;51.306;3.150;2023-04-15T12:06:47;13.30;99.90
30206;DHT22;17010;51.306;3.150;2023-04-15T12:09:15;13.20;99.90
30206;DHT22;17010;51.306;3.150;2023-04-15T12:11:45;13.30;99.90
30206;DHT22;17010;51.306;3.150;2023-04-15T12:14:24;13.40;99.90
30206;DHT22;17010;51.306;3.150;2023-04-15T12:17:13;13.20;99.90
30206;DHT22;17010;51.306;3.150;2023-04-15T12:19:40;13.30;99.90
30206;DHT22;17010;51.306;3.150;2023-04-15T12:22:11;13.30;99.90
30206;DHT22;17010;51.306;3.150;2023-04-15T12:24:38;13.10;99.90
30206;DHT22;17010;51.306;3.150;2023-04-15T12:27:11;13.00;99.90
30206;DHT22;17010;51.306;3.150;2023-04-15T12:29:40;13.20;99.90
30206;DHT22;17010;51.306;3.150;2023-04-15T12:32:15;13.00;99.90
30206;DHT22;17010;51.306;3.150;2023-04-15T12:34:49;13.00;99.90
30206;DHT22;17010;51.306;3.150;2023-04-15T12:37:15;13.10;99.90
30206;DHT22;17010;51.306;3.150;2023-04-15T12:39:45;13.20;99.90
30206;DHT22;17010;51.306;3.150;2023-04-15T12:42:18;13.30;99.90
30206;DHT22;17010;51.306;3.150;2023-04-15T12:44:45;13.40;99.90
30206;DHT22;17010;51.306;3.150;2023-04-15T12:47:13;13.20;99.90
30206;DHT22;17010;51.306;3.150;2023-04-15T12:49:44;13.20;99.90
30206;DHT22;17010;51.306;3.150;2023-04-15T12:52:10;13.10;99.90
30206;DHT22;17010;51.306;3.150;2023-04-15T12:54:38;13.40;99.90
30206;DHT22;17010;51.306;3.150;2023-04-15T12:57:05;13.30;99.90
30206;DHT22;17010;51.306;3.150;2023-04-15T12:59:31;13.50;99.90
30206;DHT22;17010;51.306;3.150;2023-04-15T13:01:58;13.30;99.90
30206;DHT22;17010;51.306;3.150;2023-04-15T13:04:25;13.20;99.90
30206;DHT22;17010;51.306;3.150;2023-04-15T13:06:55;13.10;99.90
30206;DHT22;17010;51.306;3.150;2023-04-15T13:09:22;13.10;99.90
30206;DHT22;17010;51.306;3.150;2023-04-15T13:11:49;13.10;99.90
30206;DHT22;17010;51.306;3.150;2023-04-15T13:14:16;13.00;99.90
30206;DHT22;17010;51.306;3.150;2023-04-15T13:16:47;12.80;99.90
30206;DHT22;17010;51.306;3.150;2023-04-15T13:20:04;13.00;99.90
30206;DHT22;17010;51.306;3.150;2023-04-15T13:22:52;12.90;99.90
30206;DHT22;17010;51.306;3.150;2023-04-15T13:29:22;13.00;99.90
30206;DHT22;17010;51.306;3.150;2023-04-15T13:32:01;12.90;99.90
30206;DHT22;17010;51.306;3.150;2023-04-15T13:34:56;12.70;99.90
30206;DHT22;17010;51.306;3.150;2023-04-15T13:37:28;12.70;99.90
30206;DHT22;17010;51.306;3.150;2023-04-15T13:40:22;12.90;99.90
30206;DHT22;17010;51.306;3.150;2023-04-15T13:42:50;12.80;99.90
30206;DHT22;17010;51.306;3.150;2023-04-15T13:45:32;12.60;99.90
30206;DHT22;17010;51.306;3.150;2023-04-15T13:48:03;12.60;99.90
30206;DHT22;17010;51.306;3.150;2023-04-15T13:50:58;12.40;99.90
30206;DHT22;17010;51.306;3.150;2023-04-15T13:53:38;12.30;99.90
30206;DHT22;17010;51.306;3.150;2023-04-15T13:56:09;12.20;99.90
30206;DHT22;17010;51.306;3.150;2023-04-15T13:58:36;12.30;99.90
30206;DHT22;17010;51.306;3.150;2023-04-15T14:01:10;12.20;99.90
30206;DHT22;17010;51.306;3.150;2023-04-15T14:03:37;12.10;99.90
30206;DHT22;17010;51.306;3.150;2023-04-15T14:06:07;12.10;99.90
30206;DHT22;17010;51.306;3.150;2023-04-15T14:08:53;12.10;99.90
30206;DHT22;17010;51.306;3.150;2023-04-15T14:11:23;11.90;99.90
30206;DHT22;17010;51.306;3.150;2023-04-15T14:13:57;11.80;99.90
30206;DHT22;17010;51.306;3.150;2023-04-15T14:16:24;11.80;99.90
30206;DHT22;17010;51.306;3.150;2023-04-15T14:18:52;11.90;99.90
30206;DHT22;17010;51.306;3.150;2023-04-15T14:21:22;11.90;99.90
30206;DHT22;17010;51.306;3.150;2023-04-15T14:23:53;11.80;99.90
30206;DHT22;17010;51.306;3.150;2023-04-15T14:26:24;11.70;99.90
30206;DHT22;17010;51.306;3.150;2023-04-15T14:29:11;11.80;99.90
30206;DHT22;17010;51.306;3.150;2023-04-15T14:31:50;11.70;99.90
30206;DHT22;17010;51.306;3.150;2023-04-15T14:34:30;11.70;99.90
30206;DHT22;17010;51.306;3.150;2023-04-15T14:37:22;11.70;99.90
30206;DHT22;17010;51.306;3.150;2023-04-15T14:40:14;11.70;99.90
30206;DHT22;17010;51.306;3.150;2023-04-15T14:45:59;11.60;99.90
30206;DHT22;17010;51.306;3.150;2023-04-15T14:48:26;11.60;99.90
30206;DHT22;17010;51.306;3.150;2023-04-15T14:50:59;11.50;99.90
30206;DHT22;17010;51.306;3.150;2023-04-15T14:53:25;11.40;99.90
30206;DHT22;17010;51.306;3.150;2023-04-15T14:55:53;11.50;99.90
30206;DHT22;17010;51.306;3.150;2023-04-15T14:58:20;11.50;99.90
30206;DHT22;17010;51.306;3.150;2023-04-15T15:01:15;11.40;99.90
30206;DHT22;17010;51.306;3.150;2023-04-15T15:03:56;11.50;99.90
30206;DHT22;17010;51.306;3.150;2023-04-15T15:06:33;11.40;99.90
30206;DHT22;17010;51.306;3.150;2023-04-15T15:08:59;11.40;99.90
30206;DHT22;17010;51.306;3.150;2023-04-15T15:11:32;11.40;99.90
30206;DHT22;17010;51.306;3.150;2023-04-15T15:14:01;11.40;99.90
30206;DHT22;17010;51.306;3.150;2023-04-15T15:16:32;11.50;99.90
30206;DHT22;17010;51.306;3.150;2023-04-15T15:19:02;11.40;99.90
30206;DHT22;17010;51.306;3.150;2023-04-15T15:21:33;11.30;99.90
30206;DHT22;17010;51.306;3.150;2023-04-15T15:24:25;11.20;99.90
30206;DHT22;17010;51.306;3.150;2023-04-15T15:26:52;11.20;99.90
30206;DHT22;17010;51.306;3.150;2023-04-15T15:29:21;11.20;99.90
30206;DHT22;17010;51.306;3.150;2023-04-15T15:31:53;11.20;99.90
30206;DHT22;17010;51.306;3.150;2023-04-15T15:34:19;11.10;99.90
30206;DHT22;17010;51.306;3.150;2023-04-15T15:36:50;11.20;99.90
30206;DHT22;17010;51.306;3.150;2023-04-15T15:39:22;11.20;99.90
30206;DHT22;17010;51.306;3.150;2023-04-15T15:41:49;11.10;99.90
30206;DHT22;17010;51.306;3.150;2023-04-15T15:44:16;11.10;99.90
30206;DHT22;17010;51.306;3.150;2023-04-15T15:46:44;11.10;99.90
30206;DHT22;17010;51.306;3.150;2023-04-15T15:49:10;11.10;99.90
30206;DHT22;17010;51.306;3.150;2023-04-15T15:51:37;11.10;99.90
30206;DHT22;17010;51.306;3.150;2023-04-15T15:54:05;11.00;99.90
30206;DHT22;17010;51.306;3.150;2023-04-15T15:56:36;11.00;99.90
30206;DHT22;17010;51.306;3.150;2023-04-15T15:59:05;11.00;99.90
30206;DHT22;17010;51.306;3.150;2023-04-15T16:01:32;10.90;99.90
30206;DHT22;17010;51.306;3.150;2023-04-15T16:03:59;11.00;99.90
30206;DHT22;17010;51.306;3.150;2023-04-15T16:06:26;11.00;99.90
30206;DHT22;17010;51.306;3.150;2023-04-15T16:08:54;11.00;99.90
30206;DHT22;17010;51.306;3.150;2023-04-15T16:11:20;11.00;99.90
30206;DHT22;17010;51.306;3.150;2023-04-15T16:13:48;11.00;99.90
30206;DHT22;17010;51.306;3.150;2023-04-15T16:16:15;11.00;99.90
30206;DHT22;17010;51.306;3.150;2023-04-15T16:18:41;10.90;99.90
30206;DHT22;17010;51.306;3.150;2023-04-15T16:21:09;11.00;99.90
30206;DHT22;17010;51.306;3.150;2023-04-15T16:23:36;11.00;99.90
30206;DHT22;17010;51.306;3.150;2023-04-15T16:26:03;11.00;99.90
30206;DHT22;17010;51.306;3.150;2023-04-15T16:28:31;11.00;99.90
30206;DHT22;17010;51.306;3.150;2023-04-15T16:30:57;11.00;99.90
30206;DHT22;17010;51.306;3.150;2023-04-15T16:33:26;11.00;99.90
30206;DHT22;17010;51.306;3.150;2023-04-15T16:35:52;10.90;99.90
30206;DHT22;17010;51.306;3.150;2023-04-15T16:38:19;10.80;99.90
30206;DHT22;17010;51.306;3.150;2023-04-15T16:40:47;10.80;99.90
30206;DHT22;17010;51.306;3.150;2023-04-15T16:43:14;10.70;99.90
30206;DHT22;17010;51.306;3.150;2023-04-15T16:45:46;10.60;99.90
30206;DHT22;17010;51.306;3.150;2023-04-15T16:48:19;10.60;99.90
30206;DHT22;17010;51.306;3.150;2023-04-15T16:50:49;10.60;99.90
30206;DHT22;17010;51.306;3.150;2023-04-15T16:53:24;10.60;99.90
30206;DHT22;17010;51.306;3.150;2023-04-15T16:56:06;10.60;99.90
30206;DHT22;17010;51.306;3.150;2023-04-15T16:58:40;10.60;99.90
30206;DHT22;17010;51.306;3.150;2023-04-15T17:01:10;10.60;99.90
30206;DHT22;17010;51.306;3.150;2023-04-15T17:03:37;10.60;99.90
30206;DHT22;17010;51.306;3.150;2023-04-15T17:06:10;10.60;99.90
30206;DHT22;17010;51.306;3.150;2023-04-15T17:08:40;10.70;99.90
30206;DHT22;17010;51.306;3.150;2023-04-15T17:11:10;10.70;99.90
30206;DHT22;17010;51.306;3.150;2023-04-15T17:13:45;10.60;99.90
30206;DHT22;17010;51.306;3.150;2023-04-15T17:16:20;10.50;99.90
30206;DHT22;17010;51.306;3.150;2023-04-15T17:18:52;10.50;99.90
30206;DHT22;17010;51.306;3.150;2023-04-15T17:21:27;10.50;99.90
30206;DHT22;17010;51.306;3.150;2023-04-15T17:24:04;10.40;99.90
30206;DHT22;17010;51.306;3.150;2023-04-15T17:26:37;10.30;99.90
30206;DHT22;17010;51.306;3.150;2023-04-15T17:29:08;10.30;99.90
30206;DHT22;17010;51.306;3.150;2023-04-15T17:31:35;10.30;99.90
30206;DHT22;17010;51.306;3.150;2023-04-15T17:34:02;10.30;99.90
30206;DHT22;17010;51.306;3.150;2023-04-15T17:36:29;10.30;99.90
30206;DHT22;17010;51.306;3.150;2023-04-15T17:38:55;10.20;99.90
30206;DHT22;17010;51.306;3.150;2023-04-15T17:41:22;10.20;99.90
30206;DHT22;17010;51.306;3.150;2023-04-15T17:43:49;10.20;99.90
30206;DHT22;17010;51.306;3.150;2023-04-15T17:46:17;10.10;99.90
30206;DHT22;17010;51.306;3.150;2023-04-15T17:48:45;10.00;99.90
30206;DHT22;17010;51.306;3.150;2023-04-15T17:51:11;9.90;99.90
30206;DHT22;17010;51.306;3.150;2023-04-15T17:53:40;9.90;99.90
30206;DHT22;17010;51.306;3.150;2023-04-15T17:56:09;9.80;99.90
30206;DHT22;17010;51.306;3.150;2023-04-15T17:58:35;9.90;99.90
30206;DHT22;17010;51.306;3.150;2023-04-15T18:01:04;9.80;99.90
30206;DHT22;17010;51.306;3.150;2023-04-15T18:03:32;9.80;99.90
30206;DHT22;17010;51.306;3.150;2023-04-15T18:05:59;9.80;99.90
30206;DHT22;17010;51.306;3.150;2023-04-15T18:08:27;9.70;99.90
30206;DHT22;17010;51.306;3.150;2023-04-15T18:10:55;9.70;99.90
30206;DHT22;17010;51.306;3.150;2023-04-15T18:13:21;9.70;99.90
30206;DHT22;17010;51.306;3.150;2023-04-15T18:15:55;9.60;99.90
30206;DHT22;17010;51.306;3.150;2023-04-15T18:18:22;9.60;99.90
30206;DHT22;17010;51.306;3.150;2023-04-15T18:20:48;9.60;99.90
30206;DHT22;17010;51.306;3.150;2023-04-15T18:23:15;9.50;99.90
30206;DHT22;17010;51.306;3.150;2023-04-15T18:25:41;9.50;99.90
30206;DHT22;17010;51.306;3.150;2023-04-15T18:28:11;9.40;99.90
30206;DHT22;17010;51.306;3.150;2023-04-15T18:30:38;9.30;99.90
30206;DHT22;17010;51.306;3.150;2023-04-15T18:33:08;9.30;99.90
30206;DHT22;17010;51.306;3.150;2023-04-15T18:35:37;9.20;99.90
30206;DHT22;17010;51.306;3.150;2023-04-15T18:38:04;9.20;99.90
30206;DHT22;17010;51.306;3.150;2023-04-15T18:40:32;9.20;99.90
30206;DHT22;17010;51.306;3.150;2023-04-15T18:42:59;9.10;99.90
30206;DHT22;17010;51.306;3.150;2023-04-15T18:45:31;9.10;99.90
30206;DHT22;17010;51.306;3.150;2023-04-15T18:48:07;9.10;99.90
30206;DHT22;17010;51.306;3.150;2023-04-15T18:51:13;9.10;99.90
30206;DHT22;17010;51.306;3.150;2023-04-15T18:53:44;9.00;99.90
30206;DHT22;17010;51.306;3.150;2023-04-15T18:56:13;9.00;99.90
30206;DHT22;17010;51.306;3.150;2023-04-15T18:58:47;8.90;99.90
30206;DHT22;17010;51.306;3.150;2023-04-15T19:01:15;9.00;99.90
30206;DHT22;17010;51.306;3.150;2023-04-15T19:03:44;8.90;99.90
30206;DHT22;17010;51.306;3.150;2023-04-15T19:06:13;8.90;99.90
30206;DHT22;17010;51.306;3.150;2023-04-15T19:08:41;8.90;99.90
30206;DHT22;17010;51.306;3.150;2023-04-15T19:11:41;8.80;99.90
30206;DHT22;17010;51.306;3.150;2023-04-15T19:14:39;8.80;99.90
30206;DHT22;17010;51.306;3.150;2023-04-15T19:17:08;8.80;99.90
30206;DHT22;17010;51.306;3.150;2023-04-15T19:19:57;8.80;99.90
30206;DHT22;17010;51.306;3.150;2023-04-15T19:22:27;8.80;99.90
30206;DHT22;17010;51.306;3.150;2023-04-15T19:25:06;8.80;99.90
30206;DHT22;17010;51.306;3.150;2023-04-15T19:27:35;8.80;99.90
30206;DHT22;17010;51.306;3.150;2023-04-15T19:30:05;8.80;99.90
30206;DHT22;17010;51.306;3.150;2023-04-15T19:32:33;8.70;99.90
30206;DHT22;17010;51.306;3.150;2023-04-15T19:34:59;8.70;99.90
30206;DHT22;17010;51.306;3.150;2023-04-15T19:37:25;8.60;99.90
30206;DHT22;17010;51.306;3.150;2023-04-15T19:39:59;8.60;99.90
30206;DHT22;17010;51.306;3.150;2023-04-15T19:42:27;8.60;99.90
30206;DHT22;17010;51.306;3.150;2023-04-15T19:44:56;8.50;99.90
30206;DHT22;17010;51.306;3.150;2023-04-15T19:47:39;8.50;99.90
30206;DHT22;17010;51.306;3.150;2023-04-15T19:50:12;8.50;99.90
30206;DHT22;17010;51.306;3.150;2023-04-15T19:52:44;8.40;99.90
30206;DHT22;17010;51.306;3.150;2023-04-15T19:55:13;8.40;99.90
30206;DHT22;17010;51.306;3.150;2023-04-15T19:57:52;8.40;99.90
30206;DHT22;17010;51.306;3.150;2023-04-15T20:00:28;8.40;99.90
30206;DHT22;17010;51.306;3.150;2023-04-15T20:03:20;8.40;99.90
30206;DHT22;17010;51.306;3.150;2023-04-15T20:05:49;8.30;99.90
30206;DHT22;17010;51.306;3.150;2023-04-15T20:08:16;8.30;99.90
30206;DHT22;17010;51.306;3.150;2023-04-15T20:10:49;8.30;99.90
30206;DHT22;17010;51.306;3.150;2023-04-15T20:13:33;8.20;99.90
30206;DHT22;17010;51.306;3.150;2023-04-15T20:16:03;8.20;99.90
30206;DHT22;17010;51.306;3.150;2023-04-15T20:18:33;8.20;99.90
30206;DHT22;17010;51.306;3.150;2023-04-15T20:21:05;8.20;99.90
30206;DHT22;17010;51.306;3.150;2023-04-15T20:23:43;8.20;99.90
30206;DHT22;17010;51.306;3.150;2023-04-15T20:26:15;8.20;99.90
30206;DHT22;17010;51.306;3.150;2023-04-15T20:28:46;8.10;99.90
30206;DHT22;17010;51.306;3.150;2023-04-15T20:31:32;8.20;99.90
30206;DHT22;17010;51.306;3.150;2023-04-15T20:34:06;8.20;99.90
30206;DHT22;17010;51.306;3.150;2023-04-15T20:36:33;8.20;99.90
30206;DHT22;17010;51.306;3.150;2023-04-15T20:39:03;8.20;99.90
30206;DHT22;17010;51.306;3.150;2023-04-15T20:42:05;8.20;99.90
30206;DHT22;17010;51.306;3.150;2023-04-15T20:44:36;8.20;99.90
30206;DHT22;17010;51.306;3.150;2023-04-15T20:47:07;8.10;99.90
30206;DHT22;17010;51.306;3.150;2023-04-15T20:49:47;8.00;99.90
30206;DHT22;17010;51.306;3.150;2023-04-15T20:52:16;8.00;99.90
30206;DHT22;17010;51.306;3.150;2023-04-15T20:54:53;8.00;99.90
30206;DHT22;17010;51.306;3.150;2023-04-15T20:57:21;7.90;99.90
30206;DHT22;17010;51.306;3.150;2023-04-15T20:59:52;7.90;99.90
30206;DHT22;17010;51.306;3.150;2023-04-15T21:02:25;7.90;99.90
30206;DHT22;17010;51.306;3.150;2023-04-15T21:04:58;7.90;99.90
30206;DHT22;17010;51.306;3.150;2023-04-15T21:07:25;8.00;99.90
30206;DHT22;17010;51.306;3.150;2023-04-15T21:09:59;7.90;99.90
30206;DHT22;17010;51.306;3.150;2023-04-15T21:12:46;8.00;99.90
30206;DHT22;17010;51.306;3.150;2023-04-15T21:15:21;7.90;99.90
30206;DHT22;17010;51.306;3.150;2023-04-15T21:18:45;7.90;99.90
30206;DHT22;17010;51.306;3.150;2023-04-15T21:21:36;7.90;99.90
30206;DHT22;17010;51.306;3.150;2023-04-15T21:24:10;7.80;99.90
30206;DHT22;17010;51.306;3.150;2023-04-15T21:26:55;7.80;99.90
30206;DHT22;17010;51.306;3.150;2023-04-15T21:29:30;7.80;99.90
30206;DHT22;17010;51.306;3.150;2023-04-15T21:32:25;7.90;99.90
30206;DHT22;17010;51.306;3.150;2023-04-15T21:34:53;7.80;99.90
30206;DHT22;17010;51.306;3.150;2023-04-15T21:37:27;7.80;99.90
30206;DHT22;17010;51.306;3.150;2023-04-15T21:39:57;7.80;99.90
30206;DHT22;17010;51.306;3.150;2023-04-15T21:42:25;7.80;99.90
30206;DHT22;17010;51.306;3.150;2023-04-15T21:45:24;7.80;99.90
30206;DHT22;17010;51.306;3.150;2023-04-15T21:47:54;7.80;99.90
30206;DHT22;17010;51.306;3.150;2023-04-15T21:50:57;7.80;99.90
30206;DHT22;17010;51.306;3.150;2023-04-15T21:53:25;7.80;99.90
30206;DHT22;17010;51.306;3.150;2023-04-15T21:55:55;7.70;99.90
30206;DHT22;17010;51.306;3.150;2023-04-15T21:58:23;7.70;99.90
30206;DHT22;17010;51.306;3.150;2023-04-15T22:00:51;7.70;99.90
30206;DHT22;17010;51.306;3.150;2023-04-15T22:03:29;7.70;99.90
30206;DHT22;17010;51.306;3.150;2023-04-15T22:06:02;7.80;99.90
30206;DHT22;17010;51.306;3.150;2023-04-15T22:08:34;7.80;99.90
30206;DHT22;17010;51.306;3.150;2023-04-15T22:11:06;7.80;99.90
30206;DHT22;17010;51.306;3.150;2023-04-15T22:13:33;7.70;99.90
30206;DHT22;17010;51.306;3.150;2023-04-15T22:16:13;7.70;99.90
30206;DHT22;17010;51.306;3.150;2023-04-15T22:18:42;7.70;99.90
30206;DHT22;17010;51.306;3.150;2023-04-15T22:21:11;7.80;99.90
30206;DHT22;17010;51.306;3.150;2023-04-15T22:23:38;7.70;99.90
30206;DHT22;17010;51.306;3.150;2023-04-15T22:26:18;7.80;99.90
30206;DHT22;17010;51.306;3.150;2023-04-15T22:28:59;7.80;99.90
30206;DHT22;17010;51.306;3.150;2023-04-15T22:31:27;7.80;99.90
30206;DHT22;17010;51.306;3.150;2023-04-15T22:33:56;7.80;99.90
30206;DHT22;17010;51.306;3.150;2023-04-15T22:36:24;7.70;99.90
30206;DHT22;17010;51.306;3.150;2023-04-15T22:38:52;7.80;99.90
30206;DHT22;17010;51.306;3.150;2023-04-15T22:41:19;7.80;99.90
30206;DHT22;17010;51.306;3.150;2023-04-15T22:43:46;7.80;99.90
30206;DHT22;17010;51.306;3.150;2023-04-15T22:46:15;7.80;99.90
30206;DHT22;17010;51.306;3.150;2023-04-15T22:48:41;7.70;99.90
30206;DHT22;17010;51.306;3.150;2023-04-15T22:51:11;7.70;99.90
30206;DHT22;17010;51.306;3.150;2023-04-15T22:53:38;7.70;99.90
30206;DHT22;17010;51.306;3.150;2023-04-15T22:56:08;7.70;99.90
30206;DHT22;17010;51.306;3.150;2023-04-15T22:58:36;7.70;99.90
30206;DHT22;17010;51.306;3.150;2023-04-15T23:01:07;7.70;99.90
30206;DHT22;17010;51.306;3.150;2023-04-15T23:03:38;7.80;99.90
30206;DHT22;17010;51.306;3.150;2023-04-15T23:06:05;7.80;99.90
30206;DHT22;17010;51.306;3.150;2023-04-15T23:08:49;7.70;99.90
30206;DHT22;17010;51.306;3.150;2023-04-15T23:11:22;7.80;99.90
30206;DHT22;17010;51.306;3.150;2023-04-15T23:13:52;7.80;99.90
30206;DHT22;17010;51.306;3.150;2023-04-15T23:16:29;7.80;99.90
30206;DHT22;17010;51.306;3.150;2023-04-15T23:19:09;7.90;99.90
30206;DHT22;17010;51.306;3.150;2023-04-15T23:21:40;7.80;99.90
30206;DHT22;17010;51.306;3.150;2023-04-15T23:24:11;7.80;99.90
30206;DHT22;17010;51.306;3.150;2023-04-15T23:26:43;7.80;99.90
30206;DHT22;17010;51.306;3.150;2023-04-15T23:29:24;7.80;99.90
30206;DHT22;17010;51.306;3.150;2023-04-15T23:32:13;7.80;99.90
30206;DHT22;17010;51.306;3.150;2023-04-15T23:34:56;7.80;99.90
30206;DHT22;17010;51.306;3.150;2023-04-15T23:37:35;7.80;99.90
30206;DHT22;17010;51.306;3.150;2023-04-15T23:40:12;7.80;99.90
30206;DHT22;17010;51.306;3.150;2023-04-15T23:42:48;7.80;99.90
30206;DHT22;17010;51.306;3.150;2023-04-15T23:45:25;7.90;99.90
30206;DHT22;17010;51.306;3.150;2023-04-15T23:48:01;7.80;99.90
30206;DHT22;17010;51.306;3.150;2023-04-15T23:50:38;7.80;99.90
30206;DHT22;17010;51.306;3.150;2023-04-15T23:53:07;7.90;99.90
30206;DHT22;17010;51.306;3.150;2023-04-15T23:55:34;7.90;99.90
30206;DHT22;17010;51.306;3.150;2023-04-15T23:58:22;7.90;99.90
